LTCK

Details ICAO LTCK (MSR)
Name MUS
Region Turkey
Timezone Europe/Istanbul (UTC+3.0)
Plans Departing 26
Arriving 17
Stats Elevation 4,157 ft / 1,267 m (AMSL)
Location 38.747771° 41.661231°
Runways 1
Magnetic Variation 5.870° E
Sunrise 2018-05-27 01:54:18 UTC / 2018-05-27 04:54:18 Local
Sunset 2018-05-27 16:29:34 UTC / 2018-05-27 19:29:34 Local
Advertisement - Login to hide

Runways

ID Width Length Bearing (true) Bearing (mag) Surface Threshold Offset Overrun Length
11 148 ft / 45 m 11,631 ft / 3,545 m 116.35° 110.48° Asphalt 0 ft / 0 m 500 ft / 152 m
29 148 ft / 45 m 11,631 ft / 3,545 m 296.37° 290.50° Asphalt 0 ft / 0 m 500 ft / 152 m

Approach Navaids

Runway Type Ident Frequency Range Bearing (true) Bearing (mag) Slope Elevation
29 Localiser IMUS 108.50 MHz 18 nm / 33 km 296.36° 290.48° - 4,155 ft / 1,266 m (AMSL)
29 Glidescope IMUS 108.50 MHz 10 nm / 19 km 296.36° 290.49° 3.40° 4,157 ft / 1,267 m (AMSL)
29 DME IMUS 108.50 MHz 18 nm / 33 km - - - 4,204 ft / 1,281 m (AMSL)

Map

Weather


0- 5 10 15 20 25 30 35+ Temperature / ° C

Clouds and Precipitation
Forecast for 2018-05-27 00:00 UTC. Updated 4 hours ago

Ground ~20,000 ft ~40,000 ft Winds

METAR

LTCK 270250Z 00000KT CAVOK 09/08 Q1020

TAF

Not found

Frequencies

Ground 121.95 MHz GND
Approach 122.10 MHz APP
Tower 122.10 MHz TWR
Warning: Do not use this data for real-world aviation or navigation. No guarantee of current accuracy is given.